sensor_id;sensor_type;location;lat;lon;timestamp;P1;durP1;ratioP1;P2;durP2;ratioP2
52186;SDS011;38161;53.020;6.598;2023-07-30T00:03:38;61.72;;;57.72;;
52186;SDS011;38161;53.020;6.598;2023-07-30T00:06:04;60.35;;;56.70;;
52186;SDS011;38161;53.020;6.598;2023-07-30T00:08:30;64.22;;;59.92;;
52186;SDS011;38161;53.020;6.598;2023-07-30T00:10:59;60.08;;;56.28;;
52186;SDS011;38161;53.020;6.598;2023-07-30T00:13:25;63.33;;;59.03;;
52186;SDS011;38161;53.020;6.598;2023-07-30T00:15:51;60.35;;;56.20;;
52186;SDS011;38161;53.020;6.598;2023-07-30T00:18:17;54.97;;;51.63;;
52186;SDS011;38161;53.020;6.598;2023-07-30T00:20:43;57.63;;;54.20;;
52186;SDS011;38161;53.020;6.598;2023-07-30T00:23:09;61.10;;;57.15;;
52186;SDS011;38161;53.020;6.598;2023-07-30T00:25:40;53.72;;;50.33;;
52186;SDS011;38161;53.020;6.598;2023-07-30T00:28:05;70.28;;;65.28;;
52186;SDS011;38161;53.020;6.598;2023-07-30T00:30:31;61.55;;;57.95;;
52186;SDS011;38161;53.020;6.598;2023-07-30T00:32:57;61.78;;;57.92;;
52186;SDS011;38161;53.020;6.598;2023-07-30T00:35:23;60.72;;;56.28;;
52186;SDS011;38161;53.020;6.598;2023-07-30T00:37:50;56.58;;;53.22;;
52186;SDS011;38161;53.020;6.598;2023-07-30T00:40:17;68.72;;;64.15;;
52186;SDS011;38161;53.020;6.598;2023-07-30T00:42:43;57.05;;;52.40;;
52186;SDS011;38161;53.020;6.598;2023-07-30T00:47:36;60.10;;;56.22;;
52186;SDS011;38161;53.020;6.598;2023-07-30T00:50:04;59.72;;;55.65;;
52186;SDS011;38161;53.020;6.598;2023-07-30T00:52:31;61.00;;;57.13;;
52186;SDS011;38161;53.020;6.598;2023-07-30T00:54:58;51.75;;;48.45;;
52186;SDS011;38161;53.020;6.598;2023-07-30T00:57:26;67.05;;;62.42;;
52186;SDS011;38161;53.020;6.598;2023-07-30T00:59:53;61.28;;;56.97;;
52186;SDS011;38161;53.020;6.598;2023-07-30T01:02:20;60.78;;;56.58;;
52186;SDS011;38161;53.020;6.598;2023-07-30T01:04:46;60.05;;;55.90;;
52186;SDS011;38161;53.020;6.598;2023-07-30T01:07:12;54.20;;;50.97;;
52186;SDS011;38161;53.020;6.598;2023-07-30T01:09:38;60.60;;;56.55;;
52186;SDS011;38161;53.020;6.598;2023-07-30T01:12:04;51.03;;;47.58;;
52186;SDS011;38161;53.020;6.598;2023-07-30T01:14:32;58.38;;;53.92;;
52186;SDS011;38161;53.020;6.598;2023-07-30T01:16:58;59.50;;;55.42;;
52186;SDS011;38161;53.020;6.598;2023-07-30T01:19:24;55.13;;;51.22;;
52186;SDS011;38161;53.020;6.598;2023-07-30T01:21:51;62.78;;;58.20;;
52186;SDS011;38161;53.020;6.598;2023-07-30T01:24:17;56.80;;;52.90;;
52186;SDS011;38161;53.020;6.598;2023-07-30T01:26:43;56.83;;;53.22;;
52186;SDS011;38161;53.020;6.598;2023-07-30T01:29:13;66.40;;;62.08;;
52186;SDS011;38161;53.020;6.598;2023-07-30T01:31:47;57.65;;;53.60;;
52186;SDS011;38161;53.020;6.598;2023-07-30T01:34:20;62.65;;;58.25;;
52186;SDS011;38161;53.020;6.598;2023-07-30T01:36:47;64.82;;;60.45;;
52186;SDS011;38161;53.020;6.598;2023-07-30T01:39:14;66.40;;;61.83;;
52186;SDS011;38161;53.020;6.598;2023-07-30T01:41:41;55.85;;;51.83;;
52186;SDS011;38161;53.020;6.598;2023-07-30T01:46:33;51.17;;;47.78;;
52186;SDS011;38161;53.020;6.598;2023-07-30T01:48:59;60.60;;;56.50;;
52186;SDS011;38161;53.020;6.598;2023-07-30T01:51:26;61.70;;;57.58;;
52186;SDS011;38161;53.020;6.598;2023-07-30T01:53:51;59.03;;;55.13;;
52186;SDS011;38161;53.020;6.598;2023-07-30T01:56:17;59.53;;;55.50;;
52186;SDS011;38161;53.020;6.598;2023-07-30T01:58:43;59.55;;;55.35;;
52186;SDS011;38161;53.020;6.598;2023-07-30T02:01:09;61.40;;;57.58;;
52186;SDS011;38161;53.020;6.598;2023-07-30T02:03:35;59.05;;;54.88;;
52186;SDS011;38161;53.020;6.598;2023-07-30T02:06:01;54.22;;;50.63;;
52186;SDS011;38161;53.020;6.598;2023-07-30T02:08:27;50.88;;;47.60;;
52186;SDS011;38161;53.020;6.598;2023-07-30T02:10:57;52.00;;;48.33;;
52186;SDS011;38161;53.020;6.598;2023-07-30T02:13:24;52.75;;;49.40;;
52186;SDS011;38161;53.020;6.598;2023-07-30T02:15:50;61.15;;;57.03;;
52186;SDS011;38161;53.020;6.598;2023-07-30T02:18:17;54.58;;;50.75;;
52186;SDS011;38161;53.020;6.598;2023-07-30T02:20:43;58.95;;;54.63;;
52186;SDS011;38161;53.020;6.598;2023-07-30T02:23:09;59.67;;;55.67;;
52186;SDS011;38161;53.020;6.598;2023-07-30T02:25:35;50.22;;;46.88;;
52186;SDS011;38161;53.020;6.598;2023-07-30T02:28:03;53.20;;;49.45;;
52186;SDS011;38161;53.020;6.598;2023-07-30T02:30:29;57.35;;;53.30;;
52186;SDS011;38161;53.020;6.598;2023-07-30T02:32:55;58.72;;;54.83;;
52186;SDS011;38161;53.020;6.598;2023-07-30T02:35:21;62.75;;;58.65;;
52186;SDS011;38161;53.020;6.598;2023-07-30T02:37:47;55.65;;;51.95;;
52186;SDS011;38161;53.020;6.598;2023-07-30T02:40:14;49.55;;;46.22;;
52186;SDS011;38161;53.020;6.598;2023-07-30T02:42:40;55.65;;;51.67;;
52186;SDS011;38161;53.020;6.598;2023-07-30T02:45:06;58.10;;;54.40;;
52186;SDS011;38161;53.020;6.598;2023-07-30T02:47:33;56.67;;;52.83;;
52186;SDS011;38161;53.020;6.598;2023-07-30T02:49:59;59.03;;;54.95;;
52186;SDS011;38161;53.020;6.598;2023-07-30T02:52:27;52.08;;;48.15;;
52186;SDS011;38161;53.020;6.598;2023-07-30T02:54:53;53.10;;;49.53;;
52186;SDS011;38161;53.020;6.598;2023-07-30T02:57:19;58.78;;;54.55;;
52186;SDS011;38161;53.020;6.598;2023-07-30T02:59:45;51.13;;;47.78;;
52186;SDS011;38161;53.020;6.598;2023-07-30T03:02:11;52.78;;;49.20;;
52186;SDS011;38161;53.020;6.598;2023-07-30T03:04:37;59.10;;;54.80;;
52186;SDS011;38161;53.020;6.598;2023-07-30T03:07:03;51.92;;;48.08;;
52186;SDS011;38161;53.020;6.598;2023-07-30T03:09:30;55.67;;;51.88;;
52186;SDS011;38161;53.020;6.598;2023-07-30T03:11:56;55.05;;;51.75;;
52186;SDS011;38161;53.020;6.598;2023-07-30T03:14:22;58.17;;;54.30;;
52186;SDS011;38161;53.020;6.598;2023-07-30T03:16:49;50.78;;;47.58;;
52186;SDS011;38161;53.020;6.598;2023-07-30T03:19:15;59.10;;;55.13;;
52186;SDS011;38161;53.020;6.598;2023-07-30T03:21:41;57.15;;;53.50;;
52186;SDS011;38161;53.020;6.598;2023-07-30T03:24:08;49.85;;;46.30;;
52186;SDS011;38161;53.020;6.598;2023-07-30T03:26:34;57.53;;;49.05;;
52186;SDS011;38161;53.020;6.598;2023-07-30T03:28:59;51.17;;;47.58;;
52186;SDS011;38161;53.020;6.598;2023-07-30T03:31:25;57.47;;;53.78;;
52186;SDS011;38161;53.020;6.598;2023-07-30T03:33:54;58.45;;;54.70;;
52186;SDS011;38161;53.020;6.598;2023-07-30T03:36:19;54.83;;;51.20;;
52186;SDS011;38161;53.020;6.598;2023-07-30T03:38:45;51.33;;;48.03;;
52186;SDS011;38161;53.020;6.598;2023-07-30T03:41:11;53.00;;;49.05;;
52186;SDS011;38161;53.020;6.598;2023-07-30T03:43:37;53.53;;;49.60;;
52186;SDS011;38161;53.020;6.598;2023-07-30T03:46:03;55.55;;;52.00;;
52186;SDS011;38161;53.020;6.598;2023-07-30T03:48:29;54.22;;;50.60;;
52186;SDS011;38161;53.020;6.598;2023-07-30T03:50:56;52.65;;;49.17;;
52186;SDS011;38161;53.020;6.598;2023-07-30T03:53:23;60.42;;;52.92;;
52186;SDS011;38161;53.020;6.598;2023-07-30T03:55:49;54.33;;;50.55;;
52186;SDS011;38161;53.020;6.598;2023-07-30T04:00:41;46.25;;;42.60;;
52186;SDS011;38161;53.020;6.598;2023-07-30T04:03:10;47.35;;;44.45;;
52186;SDS011;38161;53.020;6.598;2023-07-30T04:08:03;46.78;;;43.72;;
52186;SDS011;38161;53.020;6.598;2023-07-30T04:10:29;53.45;;;49.63;;
52186;SDS011;38161;53.020;6.598;2023-07-30T04:12:57;51.65;;;48.35;;
52186;SDS011;38161;53.020;6.598;2023-07-30T04:15:26;50.88;;;47.78;;
52186;SDS011;38161;53.020;6.598;2023-07-30T04:20:17;44.75;;;42.05;;
52186;SDS011;38161;53.020;6.598;2023-07-30T04:22:44;48.13;;;45.05;;
52186;SDS011;38161;53.020;6.598;2023-07-30T04:25:10;54.10;;;50.40;;
52186;SDS011;38161;53.020;6.598;2023-07-30T04:27:36;53.58;;;50.10;;
52186;SDS011;38161;53.020;6.598;2023-07-30T04:30:03;52.58;;;48.92;;
52186;SDS011;38161;53.020;6.598;2023-07-30T04:32:30;48.65;;;45.35;;
52186;SDS011;38161;53.020;6.598;2023-07-30T04:34:57;53.95;;;50.55;;
52186;SDS011;38161;53.020;6.598;2023-07-30T04:37:23;50.58;;;47.47;;
52186;SDS011;38161;53.020;6.598;2023-07-30T04:39:49;60.38;;;56.17;;
52186;SDS011;38161;53.020;6.598;2023-07-30T04:42:15;58.05;;;54.13;;
52186;SDS011;38161;53.020;6.598;2023-07-30T04:44:41;48.00;;;44.78;;
52186;SDS011;38161;53.020;6.598;2023-07-30T04:47:09;46.65;;;43.53;;
52186;SDS011;38161;53.020;6.598;2023-07-30T04:52:06;46.60;;;43.53;;
52186;SDS011;38161;53.020;6.598;2023-07-30T04:54:34;46.72;;;43.55;;
52186;SDS011;38161;53.020;6.598;2023-07-30T04:57:02;50.85;;;47.75;;
52186;SDS011;38161;53.020;6.598;2023-07-30T04:59:28;55.58;;;51.47;;
52186;SDS011;38161;53.020;6.598;2023-07-30T05:01:54;53.85;;;49.97;;
52186;SDS011;38161;53.020;6.598;2023-07-30T05:04:20;51.67;;;47.90;;
52186;SDS011;38161;53.020;6.598;2023-07-30T05:09:12;54.63;;;51.13;;
52186;SDS011;38161;53.020;6.598;2023-07-30T05:11:39;52.00;;;48.60;;
52186;SDS011;38161;53.020;6.598;2023-07-30T05:14:06;57.90;;;54.17;;
52186;SDS011;38161;53.020;6.598;2023-07-30T05:18:58;48.47;;;45.53;;
52186;SDS011;38161;53.020;6.598;2023-07-30T05:21:25;52.22;;;48.47;;
52186;SDS011;38161;53.020;6.598;2023-07-30T05:23:51;60.30;;;55.78;;
52186;SDS011;38161;53.020;6.598;2023-07-30T05:26:17;52.67;;;49.53;;
52186;SDS011;38161;53.020;6.598;2023-07-30T05:28:43;60.22;;;56.47;;
52186;SDS011;38161;53.020;6.598;2023-07-30T05:31:09;62.08;;;58.17;;
52186;SDS011;38161;53.020;6.598;2023-07-30T05:33:35;62.40;;;58.28;;
52186;SDS011;38161;53.020;6.598;2023-07-30T05:36:01;59.88;;;55.92;;
52186;SDS011;38161;53.020;6.598;2023-07-30T05:38:27;57.13;;;53.20;;
52186;SDS011;38161;53.020;6.598;2023-07-30T05:40:53;57.22;;;53.35;;
52186;SDS011;38161;53.020;6.598;2023-07-30T05:43:19;64.72;;;59.90;;
52186;SDS011;38161;53.020;6.598;2023-07-30T05:45:46;59.88;;;55.30;;
52186;SDS011;38161;53.020;6.598;2023-07-30T05:48:11;71.63;;;66.50;;
52186;SDS011;38161;53.020;6.598;2023-07-30T05:50:38;59.00;;;55.35;;
52186;SDS011;38161;53.020;6.598;2023-07-30T05:53:05;61.42;;;57.45;;
52186;SDS011;38161;53.020;6.598;2023-07-30T05:55:31;66.15;;;61.75;;
52186;SDS011;38161;53.020;6.598;2023-07-30T05:57:57;58.42;;;54.53;;
52186;SDS011;38161;53.020;6.598;2023-07-30T06:00:23;66.30;;;62.08;;
52186;SDS011;38161;53.020;6.598;2023-07-30T06:02:49;78.38;;;73.20;;
52186;SDS011;38161;53.020;6.598;2023-07-30T06:05:15;67.45;;;62.83;;
52186;SDS011;38161;53.020;6.598;2023-07-30T06:10:08;58.70;;;54.92;;
52186;SDS011;38161;53.020;6.598;2023-07-30T06:12:34;65.53;;;61.03;;
52186;SDS011;38161;53.020;6.598;2023-07-30T06:15:00;63.50;;;59.13;;
52186;SDS011;38161;53.020;6.598;2023-07-30T06:17:25;66.07;;;61.90;;
52186;SDS011;38161;53.020;6.598;2023-07-30T06:19:52;61.25;;;57.25;;
52186;SDS011;38161;53.020;6.598;2023-07-30T06:22:18;73.30;;;68.30;;
52186;SDS011;38161;53.020;6.598;2023-07-30T06:24:44;65.72;;;61.10;;
52186;SDS011;38161;53.020;6.598;2023-07-30T06:27:12;66.90;;;62.65;;
52186;SDS011;38161;53.020;6.598;2023-07-30T06:29:45;69.53;;;64.72;;
52186;SDS011;38161;53.020;6.598;2023-07-30T06:32:11;69.28;;;64.72;;
52186;SDS011;38161;53.020;6.598;2023-07-30T06:34:37;66.60;;;62.00;;
52186;SDS011;38161;53.020;6.598;2023-07-30T06:37:03;65.53;;;61.22;;
52186;SDS011;38161;53.020;6.598;2023-07-30T06:43:19;61.97;;;58.13;;
52186;SDS011;38161;53.020;6.598;2023-07-30T06:45:45;71.82;;;65.30;;
52186;SDS011;38161;53.020;6.598;2023-07-30T06:48:10;69.05;;;64.47;;
52186;SDS011;38161;53.020;6.598;2023-07-30T06:50:37;70.20;;;65.35;;
52186;SDS011;38161;53.020;6.598;2023-07-30T06:53:03;72.55;;;67.70;;
52186;SDS011;38161;53.020;6.598;2023-07-30T06:55:29;72.97;;;68.15;;
52186;SDS011;38161;53.020;6.598;2023-07-30T06:57:55;71.57;;;65.90;;
52186;SDS011;38161;53.020;6.598;2023-07-30T07:00:22;72.07;;;67.65;;
52186;SDS011;38161;53.020;6.598;2023-07-30T07:02:48;77.85;;;72.35;;
52186;SDS011;38161;53.020;6.598;2023-07-30T07:07:40;71.88;;;67.20;;
52186;SDS011;38161;53.020;6.598;2023-07-30T07:10:06;78.85;;;73.65;;
52186;SDS011;38161;53.020;6.598;2023-07-30T07:12:33;70.65;;;65.75;;
52186;SDS011;38161;53.020;6.598;2023-07-30T07:14:59;79.25;;;73.85;;
52186;SDS011;38161;53.020;6.598;2023-07-30T07:17:27;71.93;;;66.68;;
52186;SDS011;38161;53.020;6.598;2023-07-30T07:19:53;74.95;;;69.32;;
52186;SDS011;38161;53.020;6.598;2023-07-30T07:22:19;79.45;;;73.95;;
52186;SDS011;38161;53.020;6.598;2023-07-30T07:24:45;79.40;;;73.53;;
52186;SDS011;38161;53.020;6.598;2023-07-30T07:27:14;73.82;;;68.70;;
52186;SDS011;38161;53.020;6.598;2023-07-30T07:29:40;76.63;;;71.50;;
52186;SDS011;38161;53.020;6.598;2023-07-30T07:32:06;77.13;;;71.68;;
52186;SDS011;38161;53.020;6.598;2023-07-30T07:34:32;76.20;;;71.72;;
52186;SDS011;38161;53.020;6.598;2023-07-30T07:36:58;77.40;;;72.63;;
52186;SDS011;38161;53.020;6.598;2023-07-30T07:39:24;71.13;;;66.93;;
52186;SDS011;38161;53.020;6.598;2023-07-30T07:41:50;70.47;;;66.13;;
52186;SDS011;38161;53.020;6.598;2023-07-30T07:44:16;75.97;;;71.30;;
52186;SDS011;38161;53.020;6.598;2023-07-30T07:46:43;79.20;;;73.95;;
52186;SDS011;38161;53.020;6.598;2023-07-30T07:49:09;68.55;;;64.03;;
52186;SDS011;38161;53.020;6.598;2023-07-30T07:51:35;66.03;;;61.67;;
52186;SDS011;38161;53.020;6.598;2023-07-30T07:54:01;79.75;;;73.43;;
52186;SDS011;38161;53.020;6.598;2023-07-30T07:56:27;76.28;;;71.35;;
52186;SDS011;38161;53.020;6.598;2023-07-30T07:58:56;71.95;;;66.95;;
52186;SDS011;38161;53.020;6.598;2023-07-30T08:03:48;60.65;;;56.72;;
52186;SDS011;38161;53.020;6.598;2023-07-30T08:06:18;73.00;;;68.32;;
52186;SDS011;38161;53.020;6.598;2023-07-30T08:08:44;79.55;;;74.30;;
52186;SDS011;38161;53.020;6.598;2023-07-30T08:11:10;69.43;;;65.00;;
52186;SDS011;38161;53.020;6.598;2023-07-30T08:13:37;85.45;;;62.78;;
52186;SDS011;38161;53.020;6.598;2023-07-30T08:16:04;65.20;;;60.53;;
52186;SDS011;38161;53.020;6.598;2023-07-30T08:18:30;69.70;;;65.30;;
52186;SDS011;38161;53.020;6.598;2023-07-30T08:20:56;77.43;;;72.60;;
52186;SDS011;38161;53.020;6.598;2023-07-30T08:23:22;80.20;;;74.03;;
52186;SDS011;38161;53.020;6.598;2023-07-30T08:25:48;83.28;;;76.28;;
52186;SDS011;38161;53.020;6.598;2023-07-30T08:28:15;76.05;;;71.43;;
52186;SDS011;38161;53.020;6.598;2023-07-30T08:30:41;69.10;;;65.05;;
52186;SDS011;38161;53.020;6.598;2023-07-30T08:33:09;68.80;;;64.63;;
52186;SDS011;38161;53.020;6.598;2023-07-30T08:35:36;69.53;;;64.18;;
52186;SDS011;38161;53.020;6.598;2023-07-30T08:38:02;71.68;;;67.38;;
52186;SDS011;38161;53.020;6.598;2023-07-30T08:40:28;63.58;;;59.80;;
52186;SDS011;38161;53.020;6.598;2023-07-30T08:42:54;68.47;;;64.03;;
52186;SDS011;38161;53.020;6.598;2023-07-30T08:45:21;68.65;;;64.80;;
52186;SDS011;38161;53.020;6.598;2023-07-30T08:47:47;70.07;;;65.70;;
52186;SDS011;38161;53.020;6.598;2023-07-30T08:50:13;67.32;;;63.22;;
52186;SDS011;38161;53.020;6.598;2023-07-30T08:52:42;67.85;;;63.65;;
52186;SDS011;38161;53.020;6.598;2023-07-30T08:55:09;67.47;;;62.92;;
52186;SDS011;38161;53.020;6.598;2023-07-30T08:57:36;70.07;;;65.85;;
52186;SDS011;38161;53.020;6.598;2023-07-30T09:00:10;63.85;;;60.05;;
52186;SDS011;38161;53.020;6.598;2023-07-30T09:02:39;64.80;;;60.90;;
52186;SDS011;38161;53.020;6.598;2023-07-30T09:05:15;61.55;;;57.78;;
52186;SDS011;38161;53.020;6.598;2023-07-30T09:07:41;62.75;;;58.95;;
52186;SDS011;38161;53.020;6.598;2023-07-30T09:10:08;72.15;;;67.45;;
52186;SDS011;38161;53.020;6.598;2023-07-30T09:12:34;69.78;;;65.30;;
52186;SDS011;38161;53.020;6.598;2023-07-30T09:15:05;72.85;;;68.57;;
52186;SDS011;38161;53.020;6.598;2023-07-30T09:17:33;67.53;;;63.55;;
52186;SDS011;38161;53.020;6.598;2023-07-30T09:20:00;81.20;;;75.82;;
52186;SDS011;38161;53.020;6.598;2023-07-30T09:22:32;69.35;;;65.20;;
52186;SDS011;38161;53.020;6.598;2023-07-30T09:25:04;70.45;;;66.28;;
52186;SDS011;38161;53.020;6.598;2023-07-30T09:27:31;64.55;;;60.78;;
52186;SDS011;38161;53.020;6.598;2023-07-30T09:29:58;855.15;;;140.60;;
52186;SDS011;38161;53.020;6.598;2023-07-30T09:32:29;71.30;;;67.13;;
52186;SDS011;38161;53.020;6.598;2023-07-30T09:35:15;73.90;;;69.22;;
52186;SDS011;38161;53.020;6.598;2023-07-30T09:37:44;69.22;;;65.15;;
52186;SDS011;38161;53.020;6.598;2023-07-30T09:40:12;69.93;;;65.45;;
52186;SDS011;38161;53.020;6.598;2023-07-30T09:42:49;73.63;;;69.10;;
52186;SDS011;38161;53.020;6.598;2023-07-30T09:45:22;72.07;;;67.75;;
52186;SDS011;38161;53.020;6.598;2023-07-30T09:47:50;67.05;;;63.28;;
52186;SDS011;38161;53.020;6.598;2023-07-30T09:50:24;62.95;;;59.45;;
52186;SDS011;38161;53.020;6.598;2023-07-30T09:52:50;69.18;;;65.00;;
52186;SDS011;38161;53.020;6.598;2023-07-30T09:55:16;70.95;;;66.82;;
52186;SDS011;38161;53.020;6.598;2023-07-30T09:57:47;69.68;;;65.70;;
52186;SDS011;38161;53.020;6.598;2023-07-30T10:00:13;70.20;;;66.22;;
52186;SDS011;38161;53.020;6.598;2023-07-30T10:05:17;57.15;;;53.67;;
52186;SDS011;38161;53.020;6.598;2023-07-30T10:10:29;62.33;;;58.67;;
52186;SDS011;38161;53.020;6.598;2023-07-30T10:13:00;59.40;;;56.08;;
52186;SDS011;38161;53.020;6.598;2023-07-30T10:15:28;68.55;;;64.82;;
52186;SDS011;38161;53.020;6.598;2023-07-30T10:17:56;62.85;;;59.25;;
52186;SDS011;38161;53.020;6.598;2023-07-30T10:20:26;65.30;;;61.53;;
52186;SDS011;38161;53.020;6.598;2023-07-30T10:22:54;64.22;;;60.78;;
52186;SDS011;38161;53.020;6.598;2023-07-30T10:25:29;67.63;;;63.92;;
52186;SDS011;38161;53.020;6.598;2023-07-30T10:30:59;81.07;;;76.80;;
52186;SDS011;38161;53.020;6.598;2023-07-30T10:36:10;75.90;;;71.43;;
52186;SDS011;38161;53.020;6.598;2023-07-30T10:38:36;85.97;;;81.00;;
52186;SDS011;38161;53.020;6.598;2023-07-30T10:43:43;92.63;;;87.40;;
52186;SDS011;38161;53.020;6.598;2023-07-30T10:46:14;94.32;;;89.20;;
52186;SDS011;38161;53.020;6.598;2023-07-30T10:48:42;101.53;;;94.68;;
52186;SDS011;38161;53.020;6.598;2023-07-30T10:51:15;93.93;;;86.93;;
52186;SDS011;38161;53.020;6.598;2023-07-30T10:53:43;97.25;;;91.50;;
52186;SDS011;38161;53.020;6.598;2023-07-30T10:56:15;105.30;;;96.82;;
52186;SDS011;38161;53.020;6.598;2023-07-30T10:58:53;105.53;;;98.18;;
52186;SDS011;38161;53.020;6.598;2023-07-30T11:01:20;99.68;;;94.35;;
52186;SDS011;38161;53.020;6.598;2023-07-30T11:03:49;97.07;;;91.15;;
52186;SDS011;38161;53.020;6.598;2023-07-30T11:06:21;100.97;;;92.45;;
52186;SDS011;38161;53.020;6.598;2023-07-30T11:08:51;90.20;;;84.65;;
52186;SDS011;38161;53.020;6.598;2023-07-30T11:13:45;93.60;;;86.43;;
52186;SDS011;38161;53.020;6.598;2023-07-30T11:16:12;78.45;;;73.38;;
52186;SDS011;38161;53.020;6.598;2023-07-30T11:18:39;85.00;;;80.05;;
52186;SDS011;38161;53.020;6.598;2023-07-30T11:21:09;85.10;;;79.55;;
52186;SDS011;38161;53.020;6.598;2023-07-30T11:23:37;94.35;;;88.40;;
52186;SDS011;38161;53.020;6.598;2023-07-30T11:26:07;97.25;;;90.00;;
52186;SDS011;38161;53.020;6.598;2023-07-30T11:28:35;89.65;;;83.07;;
52186;SDS011;38161;53.020;6.598;2023-07-30T11:33:51;87.03;;;81.65;;
52186;SDS011;38161;53.020;6.598;2023-07-30T11:36:18;87.13;;;81.78;;
52186;SDS011;38161;53.020;6.598;2023-07-30T11:38:46;121.40;;;88.97;;
52186;SDS011;38161;53.020;6.598;2023-07-30T11:41:13;76.30;;;71.45;;
52186;SDS011;38161;53.020;6.598;2023-07-30T11:43:41;114.20;;;80.43;;
52186;SDS011;38161;53.020;6.598;2023-07-30T11:46:12;82.90;;;76.63;;
52186;SDS011;38161;53.020;6.598;2023-07-30T11:48:44;66.53;;;62.53;;
52186;SDS011;38161;53.020;6.598;2023-07-30T11:51:24;92.85;;;76.57;;
52186;SDS011;38161;53.020;6.598;2023-07-30T11:58:47;85.38;;;79.15;;
52186;SDS011;38161;53.020;6.598;2023-07-30T12:01:15;75.20;;;67.55;;
52186;SDS011;38161;53.020;6.598;2023-07-30T12:03:42;82.90;;;75.38;;
52186;SDS011;38161;53.020;6.598;2023-07-30T12:06:11;69.57;;;62.30;;
52186;SDS011;38161;53.020;6.598;2023-07-30T12:08:37;81.90;;;75.82;;
52186;SDS011;38161;53.020;6.598;2023-07-30T12:11:07;74.22;;;69.18;;
52186;SDS011;38161;53.020;6.598;2023-07-30T12:13:34;86.03;;;78.50;;
52186;SDS011;38161;53.020;6.598;2023-07-30T12:16:11;75.75;;;69.13;;
52186;SDS011;38161;53.020;6.598;2023-07-30T12:18:37;81.80;;;73.93;;
52186;SDS011;38161;53.020;6.598;2023-07-30T12:21:05;81.70;;;73.95;;
52186;SDS011;38161;53.020;6.598;2023-07-30T12:23:36;86.72;;;80.82;;
52186;SDS011;38161;53.020;6.598;2023-07-30T12:26:03;91.35;;;83.90;;
52186;SDS011;38161;53.020;6.598;2023-07-30T12:28:31;80.22;;;75.00;;
52186;SDS011;38161;53.020;6.598;2023-07-30T12:31:00;75.55;;;70.32;;
52186;SDS011;38161;53.020;6.598;2023-07-30T12:35:52;79.93;;;75.03;;
52186;SDS011;38161;53.020;6.598;2023-07-30T12:38:18;95.93;;;88.88;;
52186;SDS011;38161;53.020;6.598;2023-07-30T12:40:44;80.45;;;75.43;;
52186;SDS011;38161;53.020;6.598;2023-07-30T12:43:10;76.57;;;71.88;;
52186;SDS011;38161;53.020;6.598;2023-07-30T12:45:35;100.78;;;93.15;;
52186;SDS011;38161;53.020;6.598;2023-07-30T12:48:04;96.10;;;88.57;;
52186;SDS011;38161;53.020;6.598;2023-07-30T12:50:36;86.47;;;80.28;;
52186;SDS011;38161;53.020;6.598;2023-07-30T12:53:03;85.15;;;77.18;;
52186;SDS011;38161;53.020;6.598;2023-07-30T12:55:30;99.93;;;86.90;;
52186;SDS011;38161;53.020;6.598;2023-07-30T12:57:56;108.03;;;95.40;;
52186;SDS011;38161;53.020;6.598;2023-07-30T13:00:22;88.60;;;80.47;;
52186;SDS011;38161;53.020;6.598;2023-07-30T13:02:48;83.47;;;77.57;;
52186;SDS011;38161;53.020;6.598;2023-07-30T13:05:20;92.68;;;86.00;;
52186;SDS011;38161;53.020;6.598;2023-07-30T13:07:50;91.78;;;83.80;;
52186;SDS011;38161;53.020;6.598;2023-07-30T13:12:52;78.47;;;73.88;;
52186;SDS011;38161;53.020;6.598;2023-07-30T13:15:18;74.38;;;69.97;;
52186;SDS011;38161;53.020;6.598;2023-07-30T13:17:44;84.45;;;77.85;;
52186;SDS011;38161;53.020;6.598;2023-07-30T13:20:10;79.55;;;73.45;;
52186;SDS011;38161;53.020;6.598;2023-07-30T13:22:37;86.00;;;80.80;;
52186;SDS011;38161;53.020;6.598;2023-07-30T13:25:03;86.55;;;81.25;;
52186;SDS011;38161;53.020;6.598;2023-07-30T13:27:29;78.22;;;73.72;;
52186;SDS011;38161;53.020;6.598;2023-07-30T13:29:55;79.25;;;74.75;;
52186;SDS011;38161;53.020;6.598;2023-07-30T13:32:21;88.65;;;83.07;;
52186;SDS011;38161;53.020;6.598;2023-07-30T13:34:47;99.82;;;91.95;;
52186;SDS011;38161;53.020;6.598;2023-07-30T13:37:13;103.68;;;95.90;;
52186;SDS011;38161;53.020;6.598;2023-07-30T13:39:39;91.10;;;85.65;;
52186;SDS011;38161;53.020;6.598;2023-07-30T13:42:05;99.30;;;92.80;;
52186;SDS011;38161;53.020;6.598;2023-07-30T13:44:31;84.60;;;78.97;;
52186;SDS011;38161;53.020;6.598;2023-07-30T13:46:57;98.47;;;89.97;;
52186;SDS011;38161;53.020;6.598;2023-07-30T13:49:23;129.05;;;91.63;;
52186;SDS011;38161;53.020;6.598;2023-07-30T13:51:49;89.47;;;83.72;;
52186;SDS011;38161;53.020;6.598;2023-07-30T13:54:15;82.68;;;77.75;;
52186;SDS011;38161;53.020;6.598;2023-07-30T13:56:41;89.50;;;81.70;;
52186;SDS011;38161;53.020;6.598;2023-07-30T13:59:07;84.95;;;79.35;;
52186;SDS011;38161;53.020;6.598;2023-07-30T14:01:33;92.32;;;86.00;;
52186;SDS011;38161;53.020;6.598;2023-07-30T14:03:59;132.35;;;90.35;;
52186;SDS011;38161;53.020;6.598;2023-07-30T14:06:25;90.75;;;82.95;;
52186;SDS011;38161;53.020;6.598;2023-07-30T14:08:51;102.38;;;75.85;;
52186;SDS011;38161;53.020;6.598;2023-07-30T14:11:18;76.47;;;71.85;;
52186;SDS011;38161;53.020;6.598;2023-07-30T14:13:44;78.15;;;73.47;;
52186;SDS011;38161;53.020;6.598;2023-07-30T14:16:10;79.07;;;72.28;;
52186;SDS011;38161;53.020;6.598;2023-07-30T14:21:04;74.43;;;68.00;;
52186;SDS011;38161;53.020;6.598;2023-07-30T14:23:30;73.65;;;69.03;;
52186;SDS011;38161;53.020;6.598;2023-07-30T14:25:56;67.30;;;62.85;;
52186;SDS011;38161;53.020;6.598;2023-07-30T14:28:22;72.53;;;68.03;;
52186;SDS011;38161;53.020;6.598;2023-07-30T14:33:15;65.80;;;61.83;;
52186;SDS011;38161;53.020;6.598;2023-07-30T14:35:41;81.57;;;75.47;;
52186;SDS011;38161;53.020;6.598;2023-07-30T14:38:07;78.43;;;68.57;;
52186;SDS011;38161;53.020;6.598;2023-07-30T14:40:33;80.97;;;74.90;;
52186;SDS011;38161;53.020;6.598;2023-07-30T14:42:59;79.07;;;71.90;;
52186;SDS011;38161;53.020;6.598;2023-07-30T14:45:25;68.70;;;63.88;;
52186;SDS011;38161;53.020;6.598;2023-07-30T14:47:51;74.70;;;68.22;;
52186;SDS011;38161;53.020;6.598;2023-07-30T14:52:43;69.28;;;65.13;;
52186;SDS011;38161;53.020;6.598;2023-07-30T14:55:09;66.60;;;62.88;;
52186;SDS011;38161;53.020;6.598;2023-07-30T14:57:35;76.97;;;71.40;;
52186;SDS011;38161;53.020;6.598;2023-07-30T15:00:01;65.00;;;61.22;;
52186;SDS011;38161;53.020;6.598;2023-07-30T15:02:27;63.60;;;59.50;;
52186;SDS011;38161;53.020;6.598;2023-07-30T15:04:54;75.65;;;70.30;;
52186;SDS011;38161;53.020;6.598;2023-07-30T15:07:33;70.20;;;65.72;;
52186;SDS011;38161;53.020;6.598;2023-07-30T15:09:59;66.85;;;62.97;;
52186;SDS011;38161;53.020;6.598;2023-07-30T15:12:26;71.70;;;66.47;;
52186;SDS011;38161;53.020;6.598;2023-07-30T15:14:51;66.28;;;61.97;;
52186;SDS011;38161;53.020;6.598;2023-07-30T15:17:17;68.82;;;64.05;;
52186;SDS011;38161;53.020;6.598;2023-07-30T15:19:43;77.53;;;72.47;;
52186;SDS011;38161;53.020;6.598;2023-07-30T15:22:12;85.50;;;74.07;;
52186;SDS011;38161;53.020;6.598;2023-07-30T15:24:38;81.07;;;75.35;;
52186;SDS011;38161;53.020;6.598;2023-07-30T15:27:04;76.90;;;72.15;;
52186;SDS011;38161;53.020;6.598;2023-07-30T15:29:32;76.05;;;70.32;;